Time;durP1;ratioP1;P1;durP2;ratioP2;P2;SDS_P1;SDS_P2;PMS_P1;PMS_P2;Temp;Humidity;BMP_temperature;BMP_pressure;BME280_temperature;BME280_humidity;BME280_pressure;Samples;Min_cycle;Max_cycle;Signal;HPM_P1;HPM_P2
2023/12/01 00:01:06;;;;;;;170.88;10.23;;;;;;;22.76;48.02;97966.72;7287199;19;129347;-41
2023/12/01 00:03:32;;;;;;;211.13;11.37;;;;;;;22.70;48.45;97962.25;7287768;19;129843;-40
2023/12/01 00:05:57;;;;;;;142.40;8.83;;;;;;;22.71;48.64;97960.44;7294211;19;131015;-35
2023/12/01 00:08:22;;;;;;;158.18;9.48;;;;;;;22.69;48.95;97957.19;7293452;19;131409;-37
2023/12/01 00:10:48;;;;;;;148.07;8.97;;;;;;;22.52;48.63;97929.56;7293743;19;130265;-40
2023/12/01 00:13:13;;;;;;;207.32;11.15;;;;;;;22.69;48.81;97957.19;7296039;19;130237;-41
2023/12/01 00:15:38;;;;;;;141.63;8.90;;;;;;;22.61;48.97;97947.63;7294684;19;129582;-40
2023/12/01 00:18:04;;;;;;;133.85;8.18;;;;;;;22.59;49.13;97954.06;7293384;19;130729;-37
2023/12/01 00:20:29;;;;;;;141.57;8.13;;;;;;;22.58;49.40;97955.03;7293114;19;130858;-38
2023/12/01 00:22:54;;;;;;;224.05;11.80;;;;;;;22.57;49.24;97953.44;7293865;19;129579;-38
2023/12/01 00:25:20;;;;;;;165.53;9.40;;;;;;;22.60;49.09;97945.19;7294298;19;130685;-39
2023/12/01 00:27:45;;;;;;;147.83;8.57;;;;;;;22.59;49.12;97947.00;7292306;19;129379;-38
2023/12/01 00:30:11;;;;;;;175.07;9.97;;;;;;;22.60;49.06;97963.53;7295120;19;130890;-41
2023/12/01 00:32:36;;;;;;;124.60;7.57;;;;;;;22.58;49.13;97955.03;7294581;19;129773;-39
2023/12/01 00:35:01;;;;;;;147.83;8.93;;;;;;;22.58;48.81;97957.66;7294508;19;130337;-40
2023/12/01 00:37:27;;;;;;;168.75;9.65;;;;;;;22.57;49.08;97963.91;7291979;19;130317;-41
2023/12/01 00:39:52;;;;;;;227.27;12.00;;;;;;;22.60;49.13;97968.78;7295599;19;132122;-39
2023/12/01 00:42:18;;;;;;;135.52;8.05;;;;;;;22.58;49.42;97973.38;7294629;19;129666;-36
2023/12/01 00:44:45;;;;;;;81.22;5.43;;;;;;;22.42;49.25;97950.81;7293652;19;129839;-38
2023/12/01 00:47:10;;;;;;;151.63;9.07;;;;;;;22.59;49.45;97982.88;7293917;19;130547;-39
2023/12/01 00:49:36;;;;;;;133.20;7.40;;;;;;;22.60;49.05;97984.50;7290367;19;129728;-41
2023/12/01 00:52:01;;;;;;;180.13;9.88;;;;;;;22.48;48.99;97959.72;7293659;19;130081;-39
2023/12/01 00:54:26;;;;;;;167.20;9.57;;;;;;;22.61;49.69;97973.81;7293595;19;130674;-39
2023/12/01 00:56:52;;;;;;;190.07;10.90;;;;;;;22.58;49.10;97981.22;7293588;19;129790;-40
2023/12/01 00:59:17;;;;;;;169.75;9.13;;;;;;;22.58;49.19;97986.47;7291178;19;130217;-40
2023/12/01 01:01:42;;;;;;;154.40;8.93;;;;;;;22.59;49.17;97990.72;7293757;19;128968;-44
2023/12/01 01:04:08;;;;;;;157.73;9.05;;;;;;;22.42;49.09;97969.16;7292041;19;132064;-38
2023/12/01 01:06:33;;;;;;;174.27;9.53;;;;;;;22.57;49.04;98000.56;7293346;19;132102;-36
2023/12/01 01:08:58;;;;;;;175.17;9.60;;;;;;;22.56;48.91;98001.59;7290529;19;130610;-40
2023/12/01 01:11:24;;;;;;;224.55;12.70;;;;;;;22.55;49.11;97999.94;7291348;19;131142;-41
2023/12/01 01:13:49;;;;;;;157.90;8.77;;;;;;;22.44;49.84;97984.69;7290933;19;129544;-40
2023/12/01 01:16:15;;;;;;;124.60;6.95;;;;;;;22.55;48.84;98006.00;7291107;19;130474;-38
2023/12/01 01:18:40;;;;;;;158.97;8.77;;;;;;;22.39;48.79;97976.56;7293098;19;129457;-38
2023/12/01 01:21:06;;;;;;;183.23;10.50;;;;;;;22.54;49.42;97991.28;7293047;19;129442;-40
2023/12/01 01:23:31;;;;;;;92.97;5.93;;;;;;;22.52;48.57;97995.03;7291925;19;131057;-39
2023/12/01 01:25:56;;;;;;;211.80;11.15;;;;;;;22.52;48.56;97989.81;7292464;19;130384;-41
2023/12/01 01:28:22;;;;;;;133.52;7.60;;;;;;;22.50;49.17;97997.84;7291492;19;130077;-38
2023/12/01 01:30:47;;;;;;;137.98;7.93;;;;;;;22.47;48.91;97984.31;7293139;19;131243;-37
2023/12/01 01:33:12;;;;;;;153.67;8.97;;;;;;;22.49;48.65;97982.31;7292244;19;132278;-38
2023/12/01 01:35:38;;;;;;;223.70;11.73;;;;;;;22.48;49.08;97991.16;7292370;19;131305;-41
2023/12/01 01:38:03;;;;;;;177.85;10.07;;;;;;;22.47;48.96;97997.41;7291609;19;131488;-39
2023/12/01 01:40:28;;;;;;;128.17;7.67;;;;;;;22.44;48.83;97990.75;7293477;19;130253;-38
2023/12/01 01:42:54;;;;;;;108.72;6.18;;;;;;;22.45;49.38;97999.38;7291237;19;130250;-37
2023/12/01 01:45:19;;;;;;;137.13;7.72;;;;;;;22.40;48.74;97988.66;7290516;19;131814;-38
2023/12/01 01:47:45;;;;;;;86.47;5.17;;;;;;;22.43;48.81;97996.16;7292364;19;130368;-39
2023/12/01 01:50:10;;;;;;;150.53;8.83;;;;;;;22.41;48.80;97995.53;7292193;19;129739;-40
2023/12/01 01:52:37;;;;;;;174.97;9.20;;;;;;;22.40;48.87;97999.13;7292988;19;132060;-39
2023/12/01 01:55:03;;;;;;;157.13;8.77;;;;;;;22.40;49.43;98004.38;7291409;19;130354;-40
2023/12/01 01:57:35;;;;;;;150.30;8.65;;;;;;;22.40;49.70;98006.97;7290322;19;129592;-40
2023/12/01 02:00:01;;;;;;;158.13;9.05;;;;;;;22.39;48.87;98006.19;7292439;19;131298;-38
2023/12/01 02:02:26;;;;;;;143.82;8.27;;;;;;;22.38;49.17;98007.16;7291679;19;132286;-38
2023/12/01 02:04:53;;;;;;;199.63;10.40;;;;;;;22.35;49.71;98007.53;7291970;19;132236;-36
2023/12/01 02:07:25;;;;;;;184.63;9.77;;;;;;;22.36;49.83;98005.75;7290170;19;129946;-40
2023/12/01 02:09:51;;;;;;;143.70;8.38;;;;;;;22.21;49.21;97979.59;7288513;19;129183;-36
2023/12/01 02:12:16;;;;;;;224.77;12.52;;;;;;;22.34;49.54;98005.94;7288468;19;129473;-40
2023/12/01 02:14:41;;;;;;;198.18;10.43;;;;;;;22.35;49.17;98010.16;7290522;19;129949;-39
2023/12/01 02:17:06;;;;;;;174.82;9.43;;;;;;;22.40;49.49;98012.22;7291694;19;131372;-38
2023/12/01 02:19:32;;;;;;;162.23;9.00;;;;;;;22.21;49.63;97973.53;7289143;19;130932;-38
2023/12/01 02:21:57;;;;;;;143.60;8.37;;;;;;;22.37;49.90;97999.50;7291433;19;130590;-36
2023/12/01 02:24:23;;;;;;;156.27;8.55;;;;;;;22.19;49.45;97965.03;7290717;19;130407;-36
2023/12/01 02:26:48;;;;;;;130.97;7.83;;;;;;;22.36;49.59;97988.19;7290102;19;130455;-40
2023/12/01 02:29:13;;;;;;;178.70;9.77;;;;;;;22.17;49.55;97946.09;7290289;19;129631;-39
2023/12/01 02:31:39;;;;;;;190.65;10.27;;;;;;;22.31;49.36;97964.41;7288913;19;130027;-41
2023/12/01 02:34:04;;;;;;;151.47;8.57;;;;;;;22.30;49.62;97959.31;7290855;19;131877;-38
2023/12/01 02:36:29;;;;;;;165.95;9.50;;;;;;;22.32;50.04;97952.09;7291554;19;130803;-38
2023/12/01 02:38:55;;;;;;;160.38;8.70;;;;;;;22.15;49.50;97924.53;7289700;19;129540;-38
2023/12/01 02:41:20;;;;;;;206.77;11.27;;;;;;;22.28;49.70;97969.19;7289959;19;130229;-38
2023/12/01 02:43:45;;;;;;;137.10;7.83;;;;;;;22.28;49.74;97969.19;7290325;19;129539;-39
2023/12/01 02:46:14;;;;;;;158.13;8.87;;;;;;;22.23;49.71;97971.53;7290358;19;129822;-36
2023/12/01 02:48:40;;;;;;;165.35;9.43;;;;;;;22.25;50.18;97982.63;7287873;19;129742;-39
2023/12/01 02:51:07;;;;;;;160.38;8.77;;;;;;;22.26;50.46;97971.19;7290385;19;130536;-37
2023/12/01 02:53:32;;;;;;;165.68;8.98;;;;;;;22.28;50.29;97979.66;7290081;19;132033;-40
2023/12/01 02:55:57;;;;;;;125.32;7.00;;;;;;;22.25;49.98;97980.00;7290677;19;129197;-39
2023/12/01 02:58:24;;;;;;;145.63;8.30;;;;;;;22.22;50.11;97981.19;7287175;19;130112;-40
2023/12/01 03:00:49;;;;;;;186.88;9.80;;;;;;;22.08;50.47;97962.91;7289924;19;129720;-38
2023/12/01 03:03:14;;;;;;;178.27;9.95;;;;;;;22.19;49.95;98004.31;7291286;19;131573;-39
2023/12/01 03:05:40;;;;;;;136.23;7.93;;;;;;;22.18;49.82;98011.34;7289069;19;130915;-39
2023/12/01 03:08:05;;;;;;;151.70;8.52;;;;;;;22.18;50.57;98021.81;7289540;19;130049;-41
2023/12/01 03:10:31;;;;;;;193.30;10.40;;;;;;;22.02;49.89;97979.31;7287900;19;131162;-38
2023/12/01 03:12:56;;;;;;;123.07;7.40;;;;;;;22.17;50.15;98019.38;7288654;19;129522;-37
2023/12/01 03:15:21;;;;;;;191.13;10.60;;;;;;;22.03;49.91;97996.66;7288410;19;129900;-41
2023/12/01 03:17:47;;;;;;;194.43;10.48;;;;;;;22.16;50.00;97991.59;7288763;19;131391;-38
2023/12/01 03:20:14;;;;;;;194.80;10.50;;;;;;;22.15;50.23;98000.44;7289202;19;130388;-38
2023/12/01 03:22:45;;;;;;;138.45;8.07;;;;;;;22.15;50.26;97966.41;7288143;19;131114;-38
2023/12/01 03:25:11;;;;;;;181.95;9.73;;;;;;;22.12;50.65;97964.13;7272782;19;131666;-37
2023/12/01 03:27:41;;;;;;;174.83;9.83;;;;;;;22.13;50.32;97984.91;7285534;19;130161;-39
2023/12/01 03:30:13;;;;;;;154.65;8.35;;;;;;;22.12;50.32;97964.13;7286587;19;131834;-39
2023/12/01 03:32:40;;;;;;;158.63;8.80;;;;;;;21.95;50.48;97953.88;7289361;19;130438;-38
2023/12/01 03:35:06;;;;;;;142.40;8.20;;;;;;;22.14;50.34;97972.63;7289363;19;129166;-39
2023/12/01 03:37:31;;;;;;;177.85;9.55;;;;;;;21.94;50.25;97947.03;7287964;19;129509;-40
2023/12/01 03:39:57;;;;;;;190.48;9.93;;;;;;;22.08;50.52;97982.00;7293314;19;131158;-40
2023/12/01 03:42:22;;;;;;;159.15;9.07;;;;;;;22.09;50.68;97980.22;7297488;19;131292;-41
2023/12/01 03:44:47;;;;;;;143.47;8.13;;;;;;;22.12;50.30;98000.78;7294883;19;129524;-39
2023/12/01 03:47:13;;;;;;;117.43;6.80;;;;;;;22.09;50.51;98001.97;7295705;19;129948;-39
2023/12/01 03:49:38;;;;;;;219.77;11.00;;;;;;;21.91;51.00;97973.53;7292152;19;130226;-39
2023/12/01 03:52:04;;;;;;;151.25;8.50;;;;;;;22.05;50.40;98005.13;7295973;19;130328;-39
2023/12/01 03:54:29;;;;;;;154.85;8.90;;;;;;;21.93;50.47;97978.63;7294942;19;129838;-37
2023/12/01 03:56:54;;;;;;;183.40;10.48;;;;;;;22.06;50.79;98004.13;7295917;19;129633;-37
2023/12/01 03:59:20;;;;;;;200.30;10.73;;;;;;;22.07;50.51;97997.91;7293064;19;131204;-40
2023/12/01 04:01:45;;;;;;;149.93;8.33;;;;;;;22.03;50.63;97991.41;7294776;19;130253;-39
2023/12/01 04:04:10;;;;;;;99.25;6.18;;;;;;;21.96;51.04;97981.66;7295410;19;129361;-40
2023/12/01 04:06:37;;;;;;;158.18;8.45;;;;;;;22.05;50.88;97997.28;7294808;19;130930;-39
2023/12/01 04:09:05;;;;;;;192.68;10.50;;;;;;;22.03;51.18;98015.78;7292621;19;131291;-39
2023/12/01 04:11:32;;;;;;;183.27;9.82;;;;;;;22.04;50.83;98033.09;7293359;19;132187;-37
2023/12/01 04:13:57;;;;;;;92.75;5.88;;;;;;;22.03;50.73;98041.13;7294012;19;129776;-40
2023/12/01 04:16:24;;;;;;;198.75;10.95;;;;;;;21.97;50.80;98029.56;7294841;19;129507;-40
2023/12/01 04:18:50;;;;;;;183.88;9.98;;;;;;;21.98;50.88;98032.00;7291963;19;130188;-37
2023/12/01 04:21:16;;;;;;;153.43;8.37;;;;;;;22.01;50.92;98035.25;7294568;19;129627;-43
2023/12/01 04:23:41;;;;;;;147.40;7.83;;;;;;;21.98;51.08;98026.78;7293972;19;129782;-39
2023/12/01 04:26:06;;;;;;;189.47;9.50;;;;;;;22.02;50.78;98032.47;7294893;19;129396;-40
2023/12/01 04:28:32;;;;;;;158.88;8.88;;;;;;;22.01;51.02;98030.03;7292735;19;129319;-37
2023/12/01 04:30:57;;;;;;;136.20;7.77;;;;;;;22.04;51.29;98033.09;7294970;19;131474;-39
2023/12/01 04:33:22;;;;;;;169.20;9.35;;;;;;;22.03;51.15;98028.06;7295141;19;131247;-40
2023/12/01 04:35:48;;;;;;;207.27;10.73;;;;;;;21.97;51.54;98029.56;7293428;19;129572;-40
2023/12/01 04:38:13;;;;;;;150.57;8.65;;;;;;;21.98;51.08;98025.16;7293240;19;129897;-39
2023/12/01 04:40:38;;;;;;;90.32;5.55;;;;;;;21.84;51.41;97998.81;7292334;19;131388;-37
2023/12/01 04:43:04;;;;;;;137.48;7.35;;;;;;;21.98;51.19;98014.69;7293600;19;130357;-38
2023/12/01 04:45:32;;;;;;;225.27;11.80;;;;;;;21.94;51.44;98020.28;7293912;19;130545;-40
2023/12/01 04:47:58;;;;;;;165.75;9.20;;;;;;;21.95;51.55;98031.56;7291207;19;131358;-37
2023/12/01 04:50:29;;;;;;;146.77;8.52;;;;;;;21.93;51.60;98036.19;7291107;19;130112;-38
2023/12/01 04:52:56;;;;;;;160.48;8.80;;;;;;;21.91;51.58;98028.47;7294268;19;130226;-39
2023/12/01 04:55:29;;;;;;;214.95;11.60;;;;;;;21.93;51.71;98039.59;7291893;19;130182;-38
2023/12/01 04:57:55;;;;;;;203.20;10.60;;;;;;;21.92;51.00;98024.88;7289522;19;130497;-38
2023/12/01 05:00:25;;;;;;;149.83;8.50;;;;;;;21.77;51.67;97997.91;7292530;19;130327;-40
2023/12/01 05:02:51;;;;;;;136.52;7.68;;;;;;;21.92;51.65;98017.03;7293036;19;130121;-40
2023/12/01 05:05:24;;;;;;;155.45;8.43;;;;;;;21.89;51.98;98012.19;7292883;19;129213;-37
2023/12/01 05:07:56;;;;;;;183.85;9.68;;;;;;;21.87;51.79;98014.16;7286618;19;129532;-39
2023/12/01 05:10:22;;;;;;;203.98;11.23;;;;;;;21.90;51.77;98013.78;7287344;19;131152;-40
2023/12/01 05:12:51;;;;;;;;;;;;;;;21.89;52.50;98020.03;7292959;19;130040;-38
2023/12/01 05:15:24;;;;;;;146.15;8.15;;;;;;;21.90;51.92;98023.44;7293317;19;130160;-40
2023/12/01 05:18:11;;;;;;;180.25;9.60;;;;;;;21.89;51.80;98022.63;7289116;19;129990;-38
2023/12/01 05:20:37;;;;;;;157.57;8.43;;;;;;;21.88;51.57;98036.69;7291775;19;130504;-38
2023/12/01 05:23:10;;;;;;;195.70;10.10;;;;;;;21.87;52.00;98026.41;7292669;19;129942;-40
2023/12/01 05:25:41;;;;;;;209.48;11.27;;;;;;;21.87;51.61;98029.84;7291513;19;129409;-44
2023/12/01 05:28:08;;;;;;;198.18;10.02;;;;;;;21.85;51.80;98034.44;7286088;19;130120;-45
2023/12/01 05:30:40;;;;;;;130.00;7.35;;;;;;;21.85;51.71;98034.44;7292581;19;129755;-40
2023/12/01 05:33:05;;;;;;;176.65;9.10;;;;;;;21.87;51.32;98039.50;7292573;19;129683;-39
2023/12/01 05:35:35;;;;;;;217.77;12.13;;;;;;;21.81;51.30;98030.56;7291428;19;130191;-42
2023/12/01 05:38:04;;;;;;;151.45;8.38;;;;;;;21.86;51.84;98048.34;7290366;19;130298;-39
2023/12/01 05:40:35;;;;;;;174.90;9.45;;;;;;;21.85;51.37;98031.00;7290862;19;130463;-41
2023/12/01 05:43:01;;;;;;;206.95;10.90;;;;;;;21.84;51.82;98035.44;7288284;19;130252;-37
2023/12/01 05:45:29;;;;;;;190.07;10.17;;;;;;;21.68;52.16;98014.63;7290426;19;130068;-45
2023/12/01 05:47:55;;;;;;;136.30;7.57;;;;;;;21.83;51.57;98044.25;7291993;19;130820;-40
2023/12/01 05:50:22;;;;;;;;;;;;;;;21.65;53.00;98020.22;7288833;19;130437;-42
2023/12/01 05:52:48;;;;;;;153.50;8.10;;;;;;;21.82;51.85;98045.25;7290250;19;129359;-42
2023/12/01 05:55:16;;;;;;;257.13;12.88;;;;;;;21.81;51.63;98046.28;7287154;19;131791;-40
2023/12/01 05:57:48;;;;;;;168.98;9.32;;;;;;;21.81;51.84;98053.28;7285841;19;130012;-44
2023/12/01 06:00:22;;;;;;;147.68;8.13;;;;;;;21.78;51.80;98051.84;7291873;19;132454;-38
2023/12/01 06:02:49;;;;;;;215.70;11.40;;;;;;;21.78;51.69;98051.84;7285917;19;129157;-43
2023/12/01 06:05:15;;;;;;;;;;;;;;;21.78;52.84;98051.03;7286634;19;132520;-41
2023/12/01 06:07:43;;;;;;;252.75;13.35;;;;;;;21.75;52.25;98044.31;7287525;19;131364;-43
2023/12/01 06:10:09;;;;;;;196.80;10.30;;;;;;;21.74;51.93;98045.31;7287387;19;131456;-40
2023/12/01 06:12:37;;;;;;;185.15;9.98;;;;;;;21.77;51.72;98047.59;7289370;19;130927;-42
2023/12/01 06:15:05;;;;;;;164.32;8.73;;;;;;;21.78;51.78;98043.97;7288525;19;129285;-42
2023/12/01 06:17:31;;;;;;;202.07;10.48;;;;;;;21.79;51.62;98048.25;7288155;19;130904;-45
2023/12/01 06:19:57;;;;;;;152.77;8.35;;;;;;;21.77;51.76;98049.41;7290460;19;131022;-38
2023/12/01 06:22:22;;;;;;;177.30;9.90;;;;;;;21.77;51.69;98055.44;7289070;19;130912;-41
2023/12/01 06:24:48;;;;;;;144.53;7.87;;;;;;;21.75;52.27;98046.13;7289736;19;129642;-41
2023/12/01 06:27:13;;;;;;;197.80;10.15;;;;;;;21.57;52.00;98022.91;7288604;19;130050;-43
2023/12/01 06:29:39;;;;;;;203.13;10.80;;;;;;;21.75;52.05;98052.16;7286778;19;130628;-37
2023/12/01 06:32:04;;;;;;;99.82;6.07;;;;;;;21.78;51.71;98051.84;7290606;19;129345;-39
2023/12/01 06:34:30;;;;;;;204.63;10.47;;;;;;;21.77;51.66;98042.38;7291040;19;129464;-37
2023/12/01 06:36:59;;;;;;;227.83;12.00;;;;;;;21.77;51.67;98037.13;7290124;19;131356;-43
2023/12/01 06:39:25;;;;;;;173.05;9.38;;;;;;;21.76;52.30;98048.59;7286421;19;131706;-37
2023/12/01 06:41:53;;;;;;;127.43;7.25;;;;;;;21.78;52.29;98056.28;7289890;19;129821;-41
2023/12/01 06:44:18;;;;;;;180.25;9.40;;;;;;;21.59;52.29;98031.41;7288230;19;129638;-40
2023/12/01 06:46:43;;;;;;;143.88;7.85;;;;;;;21.72;51.80;98065.59;7288618;19;131829;-43
2023/12/01 06:49:09;;;;;;;160.93;9.20;;;;;;;21.78;51.07;98064.91;7286971;19;132585;-41
2023/12/01 06:51:34;;;;;;;177.27;10.00;;;;;;;21.77;50.87;98065.91;7288417;19;130292;-38
2023/12/01 06:53:59;;;;;;;204.60;11.70;;;;;;;21.58;51.09;98044.66;7291320;19;131525;-41
2023/12/01 06:56:25;;;;;;;191.20;10.95;;;;;;;21.72;51.53;98076.06;7290877;19;130187;-43
2023/12/01 06:58:50;;;;;;;174.65;9.80;;;;;;;21.69;51.42;98084.28;7287925;19;130938;-40
2023/12/01 07:01:18;;;;;;;162.02;9.55;;;;;;;21.72;51.49;98083.91;7290080;19;129516;-45
2023/12/01 07:03:47;;;;;;;198.85;10.40;;;;;;;21.72;51.99;98081.28;7288827;19;130143;-40
2023/12/01 07:06:12;;;;;;;168.75;9.68;;;;;;;21.71;51.97;98084.91;7290160;19;130130;-42
2023/12/01 07:08:41;;;;;;;132.88;7.80;;;;;;;21.68;51.67;98090.47;7288570;19;130214;-40
2023/12/01 07:11:07;;;;;;;126.50;7.72;;;;;;;21.68;51.65;98093.09;7290804;19;131016;-40
2023/12/01 07:13:32;;;;;;;241.73;12.43;;;;;;;21.68;51.90;98098.31;7289172;19;132484;-37
2023/12/01 07:15:58;;;;;;;139.03;8.00;;;;;;;21.66;52.13;98089.84;7290402;19;130293;-44
2023/12/01 07:18:24;;;;;;;87.93;6.07;;;;;;;21.69;51.56;98101.75;7287353;19;130407;-43
2023/12/01 07:20:50;;;;;;;151.30;8.87;;;;;;;21.68;51.56;98106.16;7290310;19;129338;-38
2023/12/01 07:23:17;;;;;;;145.65;8.68;;;;;;;21.65;52.32;98105.72;7289304;19;129615;-41
2023/12/01 07:25:47;;;;;;;184.18;10.35;;;;;;;21.62;52.05;98109.50;7288983;19;133588;-40
2023/12/01 07:28:13;;;;;;;154.05;9.30;;;;;;;21.60;52.27;98116.69;7287443;19;130398;-45
2023/12/01 07:30:41;;;;;;;156.67;8.77;;;;;;;21.63;51.77;98133.84;7287272;19;129334;-39
2023/12/01 07:33:10;;;;;;;220.43;11.48;;;;;;;21.65;52.10;98135.28;7289299;19;131906;-40
2023/12/01 07:35:35;;;;;;;223.95;11.93;;;;;;;21.64;51.96;98133.69;7289392;19;130816;-42
2023/12/01 07:38:04;;;;;;;127.57;7.85;;;;;;;21.64;52.44;98136.28;7287005;19;129543;-43
2023/12/01 07:40:31;;;;;;;141.45;8.45;;;;;;;21.64;52.39;98144.13;7288270;19;129578;-37
2023/12/01 07:42:57;;;;;;;129.10;7.70;;;;;;;21.63;51.70;98147.75;7288408;19;130472;-41
2023/12/01 07:45:23;;;;;;;180.23;9.90;;;;;;;21.59;51.84;98143.84;7291060;19;132481;-40
2023/12/01 07:47:51;;;;;;;184.50;10.55;;;;;;;21.61;52.48;98148.91;7285822;19;130335;-38
2023/12/01 07:50:17;;;;;;;111.60;7.00;;;;;;;21.58;51.99;98152.69;7287696;19;130046;-39
2023/12/01 07:52:47;;;;;;;210.32;11.05;;;;;;;21.61;52.19;98154.97;7285446;19;131290;-42
2023/12/01 07:55:13;;;;;;;195.15;10.25;;;;;;;21.59;51.95;98150.88;7286842;19;129755;-41
2023/12/01 07:57:38;;;;;;;179.23;9.30;;;;;;;21.59;52.51;98167.38;7284510;19;131450;-43
2023/12/01 08:00:16;;;;;;;189.30;10.27;;;;;;;21.59;52.78;98162.16;7284685;19;129721;-42
2023/12/01 08:02:46;;;;;;;185.55;10.23;;;;;;;21.57;52.54;98169.34;7284350;19;129874;-40
2023/12/01 08:05:14;;;;;;;218.52;11.60;;;;;;;21.39;52.15;98150.53;7286598;19;132270;-42
2023/12/01 08:07:43;;;;;;;211.90;11.20;;;;;;;21.42;52.68;98150.16;7285478;19;130184;-38
2023/12/01 08:10:09;;;;;;;187.27;10.00;;;;;;;21.55;51.97;98171.31;7283806;19;130015;-47
2023/12/01 08:12:34;;;;;;;133.65;7.85;;;;;;;21.58;52.66;98178.03;7283605;19;131037;-41
2023/12/01 08:15:00;;;;;;;174.10;9.38;;;;;;;21.58;52.08;98184.06;7286813;19;132227;-38
2023/12/01 08:17:25;;;;;;;178.88;9.77;;;;;;;21.56;52.72;98183.44;7288100;19;130326;-38
2023/12/01 08:19:51;;;;;;;155.33;9.13;;;;;;;21.54;52.58;98180.16;7288236;19;129460;-38
2023/12/01 08:22:17;;;;;;;140.18;8.23;;;;;;;21.41;52.60;98142.50;7286270;19;130065;-45
2023/12/01 08:24:42;;;;;;;137.07;8.00;;;;;;;21.58;52.72;98176.22;7288431;19;129785;-42
2023/12/01 08:27:08;;;;;;;177.43;9.53;;;;;;;21.57;52.40;98185.03;7294304;19;130940;-41
2023/12/01 08:29:33;;;;;;;165.43;9.35;;;;;;;21.38;52.55;98142.84;7292710;19;130033;-40
2023/12/01 08:32:00;;;;;;;143.38;8.27;;;;;;;21.55;52.67;98171.31;7293516;19;129203;-42
2023/12/01 08:34:25;;;;;;;226.82;11.77;;;;;;;21.55;52.43;98179.16;7293291;19;130849;-40
2023/12/01 08:36:50;;;;;;;189.32;10.88;;;;;;;21.55;52.31;98181.00;7294837;19;130311;-40
2023/12/01 08:39:16;;;;;;;161.77;9.25;;;;;;;21.54;52.57;98172.31;7293314;19;130573;-41
2023/12/01 08:41:41;;;;;;;154.30;9.23;;;;;;;21.51;52.80;98190.16;7295286;19;133133;-41
2023/12/01 08:44:06;;;;;;;211.23;10.68;;;;;;;21.39;52.84;98168.81;7293332;19;130404;-45
2023/12/01 08:46:32;;;;;;;104.77;6.13;;;;;;;21.53;52.89;98181.16;7294696;19;131098;-41
2023/12/01 08:48:57;;;;;;;162.32;9.10;;;;;;;21.52;52.47;98195.22;7289772;19;129797;-39
2023/12/01 08:51:23;;;;;;;162.80;9.23;;;;;;;21.54;52.25;98195.84;7293764;19;131024;-40
2023/12/01 08:53:48;;;;;;;170.17;9.07;;;;;;;21.49;52.32;98195.56;7294937;19;129824;-40
2023/12/01 08:56:13;;;;;;;140.57;7.85;;;;;;;21.50;52.43;98199.78;7293475;19;130285;-45
2023/12/01 08:58:39;;;;;;;169.07;9.40;;;;;;;21.51;52.53;98201.44;7291275;19;129800;-44
2023/12/01 09:01:04;;;;;;;141.33;7.70;;;;;;;21.50;52.46;98207.63;7292748;19;129513;-39
2023/12/01 09:03:30;;;;;;;184.07;10.10;;;;;;;21.50;52.95;98209.47;7295014;19;130152;-43
2023/12/01 09:05:55;;;;;;;152.47;9.10;;;;;;;21.49;52.82;98199.97;7294236;19;131513;-40
2023/12/01 09:08:21;;;;;;;141.82;8.00;;;;;;;21.40;52.99;98188.75;7291966;19;131985;-40
2023/12/01 09:10:47;;;;;;;207.73;11.30;;;;;;;21.46;52.99;98198.53;7291723;19;129969;-40
2023/12/01 09:13:12;;;;;;;177.17;9.37;;;;;;;21.47;53.00;98215.84;7294303;19;130278;-40
2023/12/01 09:15:37;;;;;;;157.50;9.52;;;;;;;21.45;52.40;98217.00;7292993;19;130245;-40
2023/12/01 09:18:03;;;;;;;171.00;8.93;;;;;;;21.47;52.93;98226.28;7290878;19;129607;-40
2023/12/01 09:20:28;;;;;;;196.95;9.95;;;;;;;21.46;52.86;98219.44;7294479;19;131381;-40
2023/12/01 09:22:54;;;;;;;168.82;9.15;;;;;;;21.48;52.46;98222.72;7294750;19;131101;-40
2023/12/01 09:25:19;;;;;;;145.68;8.68;;;;;;;21.48;52.71;98222.72;7292969;19;131099;-40
2023/12/01 09:27:45;;;;;;;202.18;10.93;;;;;;;21.47;53.10;98230.72;7292184;19;130452;-40
2023/12/01 09:30:13;;;;;;;198.07;10.27;;;;;;;21.42;53.12;98220.75;7290792;19;133730;-39
2023/12/01 09:32:39;;;;;;;185.70;10.20;;;;;;;21.44;53.17;98221.41;7293162;19;129446;-40
2023/12/01 09:35:05;;;;;;;176.37;9.43;;;;;;;21.42;53.23;98226.00;7291963;19;130561;-37
2023/12/01 09:37:31;;;;;;;129.50;7.60;;;;;;;21.43;53.36;98216.34;7293167;19;130045;-40
2023/12/01 09:39:56;;;;;;;231.02;11.38;;;;;;;21.43;52.86;98225.03;7291806;19;130320;-41
2023/12/01 09:42:23;;;;;;;171.52;9.45;;;;;;;21.44;52.73;98221.41;7291715;19;130338;-40
2023/12/01 09:44:52;;;;;;;152.45;8.70;;;;;;;21.45;52.91;98223.03;7291586;19;130434;-38
2023/12/01 09:47:20;;;;;;;165.60;9.15;;;;;;;21.39;52.96;98213.25;7291014;19;130024;-39
2023/12/01 09:49:46;;;;;;;202.05;10.77;;;;;;;21.42;52.88;98218.16;7290002;19;129094;-41
2023/12/01 09:52:11;;;;;;;125.60;7.05;;;;;;;21.41;53.14;98203.47;7291703;19;130953;-37
2023/12/01 09:54:37;;;;;;;107.95;6.72;;;;;;;21.24;53.29;98183.59;7290680;19;129622;-38
2023/12/01 09:57:06;;;;;;;193.15;10.38;;;;;;;21.37;52.80;98199.53;7290987;19;130276;-39
2023/12/01 09:59:34;;;;;;;196.20;10.25;;;;;;;21.36;53.41;98208.38;7289890;19;129704;-38
2023/12/01 10:02:00;;;;;;;166.27;9.23;;;;;;;21.35;52.87;98219.84;7292531;19;131779;-41
2023/12/01 10:04:25;;;;;;;151.52;8.20;;;;;;;21.31;53.15;98207.25;7290164;19;132538;-38
2023/12/01 10:06:50;;;;;;;209.48;11.48;;;;;;;21.41;52.91;98218.31;7291709;19;131007;-40
2023/12/01 10:09:25;;;;;;;183.25;9.60;;;;;;;21.36;53.54;98213.63;7290542;19;130897;-40
2023/12/01 10:12:06;;;;;;;173.55;9.57;;;;;;;21.33;53.99;98219.19;7292747;19;133504;-38
2023/12/01 10:14:32;;;;;;;193.02;10.00;;;;;;;21.38;53.02;98226.50;7291442;19;130882;-38
2023/12/01 10:17:03;;;;;;;188.77;10.85;;;;;;;21.33;53.69;98219.19;7289480;19;130206;-41
2023/12/01 10:19:31;;;;;;;134.68;8.15;;;;;;;21.37;52.99;98219.66;7290286;19;132432;-41
2023/12/01 10:21:56;;;;;;;241.13;12.70;;;;;;;21.35;53.62;98225.06;7289701;19;129518;-38
2023/12/01 10:24:22;;;;;;;119.78;6.90;;;;;;;21.36;53.60;98213.63;7292621;19;130325;-39
2023/12/01 10:27:01;;;;;;;202.50;10.82;;;;;;;21.11;53.37;98177.31;7288852;19;130966;-40
2023/12/01 10:29:31;;;;;;;153.88;8.60;;;;;;;21.38;53.23;98208.22;7288032;19;129269;-38
2023/12/01 10:31:59;;;;;;;211.88;11.40;;;;;;;21.36;53.24;98216.22;7291140;19;131279;-38
2023/12/01 10:34:25;;;;;;;217.43;11.30;;;;;;;21.37;53.17;98212.63;7291895;19;132514;-40
2023/12/01 10:36:54;;;;;;;233.52;12.57;;;;;;;21.36;53.10;98202.34;7288918;19;129489;-38
2023/12/01 10:39:25;;;;;;;151.30;8.23;;;;;;;21.34;53.02;98193.84;7288438;19;131547;-39
2023/12/01 10:41:53;;;;;;;149.73;8.55;;;;;;;21.34;53.28;98199.91;7290915;19;130612;-41
2023/12/01 10:44:22;;;;;;;183.25;9.88;;;;;;;21.22;53.10;98182.97;7290642;19;130514;-40
2023/12/01 10:46:48;;;;;;;161.50;9.18;;;;;;;21.19;53.19;98191.16;7291343;19;132231;-39
2023/12/01 10:49:17;;;;;;;160.18;8.50;;;;;;;21.33;53.23;98224.41;7286415;19;131206;-40
2023/12/01 10:51:43;;;;;;;170.15;9.38;;;;;;;21.33;53.29;98220.97;7290408;19;132294;-41
2023/12/01 10:54:10;;;;;;;201.93;10.47;;;;;;;21.31;53.56;98226.38;7289512;19;131401;-41
2023/12/01 10:56:48;;;;;;;187.98;9.85;;;;;;;21.32;53.22;98220.16;7290035;19;131482;-39
2023/12/01 10:59:18;;;;;;;168.90;8.77;;;;;;;21.33;53.21;98207.91;7287670;19;129473;-38
2023/12/01 11:01:48;;;;;;;159.25;8.57;;;;;;;21.31;53.48;98208.09;7288654;19;131923;-38
2023/12/01 11:04:19;;;;;;;160.63;8.82;;;;;;;21.17;53.70;98187.88;7289767;19;130247;-39